createdAt,value
2022-08-05T00:00:18.769Z,18.83
2022-08-05T00:02:50.573Z,18.64
2022-08-05T00:06:02.723Z,19.08
2022-08-05T00:08:19.818Z,19.51
2022-08-05T00:11:00.562Z,19.42
2022-08-05T00:14:39.444Z,18.87
2022-08-05T00:17:19.576Z,18.45
2022-08-05T00:20:02.384Z,18.25
2022-08-05T00:22:30.965Z,18.81
2022-08-05T00:24:58.561Z,19.20
2022-08-05T00:27:36.222Z,19.19
2022-08-05T00:30:11.328Z,18.97
2022-08-05T00:32:39.265Z,18.64
2022-08-05T00:35:08.587Z,18.41
2022-08-05T00:37:53.481Z,18.81
2022-08-05T00:40:26.652Z,19.24
2022-08-05T00:42:55.412Z,19.18
2022-08-05T00:45:28.065Z,18.90
2022-08-05T00:48:06.417Z,18.58
2022-08-05T00:50:34.677Z,18.37
2022-08-05T00:55:44.329Z,19.23
2022-08-05T00:58:12.635Z,19.25
2022-08-05T01:00:40.741Z,19.08
2022-08-05T01:03:12.665Z,18.81
2022-08-05T01:05:51.771Z,18.58
2022-08-05T01:08:42.039Z,19.02
2022-08-05T01:11:11.979Z,19.38
2022-08-05T01:13:59.758Z,19.30
2022-08-05T01:17:05.433Z,19.00
2022-08-05T01:19:56.429Z,18.70
2022-08-05T01:22:27.987Z,18.48
2022-08-05T01:25:11.049Z,18.96
2022-08-05T01:28:06.381Z,19.24
2022-08-05T01:30:39.876Z,19.02
2022-08-05T01:33:19.724Z,18.65
2022-08-05T01:35:52.193Z,18.29
2022-08-05T01:38:26.994Z,18.03
2022-08-05T01:40:57.898Z,18.38
2022-08-05T01:43:25.105Z,18.70
2022-08-05T01:45:56.079Z,18.60
2022-08-05T01:48:28.507Z,18.33
2022-08-05T01:50:56.077Z,18.02
2022-08-05T01:53:42.188Z,17.77
2022-08-05T01:56:11.261Z,18.23
2022-08-05T01:58:45.129Z,18.65
2022-08-05T02:01:21.495Z,18.59
2022-08-05T02:03:52.787Z,18.37
2022-08-05T02:06:37.793Z,18.08
2022-08-05T02:09:05.936Z,17.77
2022-08-05T02:12:00.550Z,18.16
2022-08-05T02:14:31.918Z,18.51
2022-08-05T02:17:08.525Z,18.39
2022-08-05T02:19:51.863Z,18.15
2022-08-05T02:22:26.757Z,17.88
2022-08-05T02:25:00.335Z,17.70
2022-08-05T02:27:30.151Z,18.15
2022-08-05T02:30:16.459Z,18.55
2022-08-05T02:32:54.498Z,18.43
2022-08-05T02:35:28.067Z,18.12
2022-08-05T02:38:02.304Z,17.87
2022-08-05T02:40:29.990Z,17.69
2022-08-05T02:42:58.192Z,18.12
2022-08-05T02:45:25.744Z,18.57
2022-08-05T02:48:06.577Z,18.59
2022-08-05T02:50:37.330Z,18.39
2022-08-05T02:53:04.789Z,18.05
2022-08-05T02:55:51.989Z,17.72
2022-08-05T02:58:21.905Z,18.14
2022-08-05T03:00:49.695Z,18.51
2022-08-05T03:03:20.937Z,18.48
2022-08-05T03:06:53.645Z,18.25
2022-08-05T03:08:42.551Z,17.95
2022-08-05T03:11:55.240Z,17.79
2022-08-05T03:14:13.555Z,18.45
2022-08-05T03:16:41.228Z,18.92
2022-08-05T03:19:17.041Z,18.89
2022-08-05T03:21:49.545Z,18.69
2022-08-05T03:24:29.348Z,18.56
2022-08-05T03:26:59.168Z,18.37
2022-08-05T03:29:45.486Z,18.85
2022-08-05T03:32:15.628Z,19.42
2022-08-05T03:34:50.392Z,19.55
2022-08-05T03:37:22.203Z,19.56
2022-08-05T03:40:00.921Z,19.51
2022-08-05T03:42:32.138Z,19.54
2022-08-05T03:45:01.805Z,20.19
2022-08-05T03:47:47.755Z,20.76
2022-08-05T03:50:16.768Z,20.82
2022-08-05T03:55:49.691Z,20.82
2022-08-05T03:56:11.034Z,20.69
2022-08-05T03:58:43.528Z,20.60
2022-08-05T04:01:12.853Z,20.31
2022-08-05T04:04:09.938Z,20.26
2022-08-05T04:06:30.680Z,21.07
2022-08-05T04:08:57.945Z,21.23
2022-08-05T04:11:47.705Z,21.10
2022-08-05T04:14:17.843Z,20.81
2022-08-05T04:16:45.802Z,20.83
2022-08-05T04:19:13.771Z,20.97
2022-08-05T04:22:09.956Z,21.30
2022-08-05T04:24:28.772Z,21.96
2022-08-05T04:26:58.130Z,22.17
2022-08-05T04:29:27.225Z,22.15
2022-08-05T04:31:56.844Z,21.95
2022-08-05T04:34:32.690Z,21.71
2022-08-05T04:37:03.034Z,21.58
2022-08-05T04:39:32.211Z,21.85
2022-08-05T04:42:00.310Z,22.45
2022-08-05T04:44:30.708Z,23.21
2022-08-05T04:46:59.351Z,21.98
2022-08-05T04:49:38.619Z,21.89
2022-08-05T04:52:15.698Z,21.59
2022-08-05T04:54:42.996Z,21.80
2022-08-05T04:57:10.275Z,21.83
2022-08-05T04:59:38.994Z,21.85
2022-08-05T05:02:36.870Z,22.12
2022-08-05T05:05:02.798Z,21.66
2022-08-05T05:07:32.682Z,22.25
2022-08-05T05:10:04.556Z,22.34
2022-08-05T05:12:32.578Z,22.54
2022-08-05T05:15:00.140Z,22.77
2022-08-05T05:17:55.696Z,22.45
2022-08-05T05:20:28.354Z,22.46
2022-08-05T05:23:08.030Z,22.18
2022-08-05T05:25:40.969Z,22.03
2022-08-05T05:28:09.643Z,22.58
2022-08-05T05:30:37.918Z,22.84
2022-08-05T05:33:14.171Z,23.01
2022-08-05T05:35:45.696Z,22.84
2022-08-05T05:38:14.251Z,22.51
2022-08-05T05:40:49.646Z,23.39
2022-08-05T05:43:27.949Z,23.70
2022-08-05T05:46:13.694Z,23.64
2022-08-05T05:48:44.515Z,23.11
2022-08-05T05:51:15.780Z,23.41
2022-08-05T05:53:54.387Z,22.95
2022-08-05T05:56:34.815Z,22.98
2022-08-05T05:59:05.853Z,23.35
2022-08-05T06:01:39.918Z,23.61
2022-08-05T06:04:11.268Z,23.72
2022-08-05T06:06:47.349Z,23.78
2022-08-05T06:09:24.639Z,24.45
2022-08-05T06:12:01.809Z,24.84
2022-08-05T06:14:34.667Z,24.51
2022-08-05T06:17:22.214Z,23.95
2022-08-05T06:19:56.895Z,23.99
2022-08-05T06:22:29.014Z,24.40
2022-08-05T06:24:56.413Z,24.56
2022-08-05T06:28:12.714Z,24.66
2022-08-05T06:30:17.950Z,24.71
2022-08-05T06:32:50.688Z,24.76
2022-08-05T06:36:04.234Z,24.67
2022-08-05T06:38:11.142Z,24.61
2022-08-05T06:40:44.286Z,24.52
2022-08-05T06:43:57.478Z,24.27
2022-08-05T06:46:03.563Z,24.23
2022-08-05T06:48:53.587Z,24.27
2022-08-05T06:51:29.905Z,24.23
2022-08-05T06:54:02.857Z,24.30
2022-08-05T06:56:34.182Z,24.46
2022-08-05T06:59:09.720Z,24.72
2022-08-05T07:01:41.494Z,24.96
2022-08-05T07:04:10.016Z,24.93
2022-08-05T07:06:37.348Z,24.93
2022-08-05T07:09:05.025Z,25.05
2022-08-05T07:11:37.173Z,25.20
2022-08-05T07:14:29.346Z,25.09
2022-08-05T07:18:01.903Z,25.05
2022-08-05T07:22:41.938Z,24.87
2022-08-05T07:25:23.057Z,25.09
2022-08-05T07:28:05.393Z,24.62
2022-08-05T07:30:38.893Z,24.99
2022-08-05T07:33:10.385Z,25.09
2022-08-05T07:36:04.655Z,24.90
2022-08-05T07:38:34.460Z,25.01
2022-08-05T07:42:07.098Z,25.36
2022-08-05T07:43:56.766Z,24.93
2022-08-05T07:46:28.864Z,25.43
2022-08-05T07:49:02.346Z,25.81
2022-08-05T07:51:37.518Z,26.05
2022-08-05T07:54:15.975Z,26.33
2022-08-05T07:57:13.977Z,26.39
2022-08-05T07:59:39.962Z,26.62
2022-08-05T08:02:15.873Z,27.05
2022-08-05T08:04:46.874Z,26.91
2022-08-05T08:07:15.105Z,26.00
2022-08-05T08:09:45.365Z,26.04
2022-08-05T08:12:33.294Z,26.29
2022-08-05T08:15:04.455Z,26.48
2022-08-05T08:17:32.978Z,26.30
2022-08-05T08:20:44.221Z,26.32
2022-08-05T08:22:59.586Z,26.58
2022-08-05T08:25:59.714Z,26.89
2022-08-05T08:28:36.183Z,26.55
2022-08-05T08:31:08.150Z,26.85
2022-08-05T08:33:35.891Z,27.24
2022-08-05T08:38:55.910Z,27.12
2022-08-05T08:41:25.943Z,27.31
2022-08-05T08:45:24.434Z,26.80
2022-08-05T08:47:00.796Z,27.40
2022-08-05T08:50:13.120Z,27.84
2022-08-05T08:52:19.975Z,28.42
2022-08-05T08:54:49.959Z,28.16
2022-08-05T08:57:17.649Z,27.23
2022-08-05T08:59:47.384Z,27.23
2022-08-05T09:02:19.274Z,28.12
2022-08-05T09:05:16.971Z,28.05
2022-08-05T09:07:39.794Z,27.09
2022-08-05T09:10:27.834Z,27.56
2022-08-05T09:13:04.540Z,27.75
2022-08-05T09:15:32.715Z,27.50
2022-08-05T09:18:07.558Z,26.33
2022-08-05T09:20:38.329Z,26.22
2022-08-05T09:23:27.250Z,25.89
2022-08-05T09:26:20.489Z,26.24
2022-08-05T09:28:50.004Z,26.84
2022-08-05T09:31:22.969Z,27.04
2022-08-05T09:34:06.807Z,26.73
2022-08-05T09:36:54.014Z,27.07
2022-08-05T09:39:27.792Z,27.24
2022-08-05T09:42:24.557Z,27.64
2022-08-05T09:44:57.475Z,27.51
2022-08-05T09:47:55.457Z,26.88
2022-08-05T09:50:38.747Z,26.92
2022-08-05T09:53:22.839Z,27.57
2022-08-05T09:56:03.822Z,27.67
2022-08-05T09:58:41.956Z,28.44
2022-08-05T10:01:14.640Z,29.20
2022-08-05T10:04:00.573Z,29.66
2022-08-05T10:06:28.466Z,29.70
2022-08-05T10:08:56.626Z,29.34
2022-08-05T10:11:24.198Z,28.08
2022-08-05T10:13:59.889Z,27.71
2022-08-05T10:16:41.614Z,26.99
2022-08-05T10:19:23.449Z,27.15
2022-08-05T10:21:59.794Z,27.35
2022-08-05T10:24:27.375Z,27.13
2022-08-05T10:27:00.523Z,27.55
2022-08-05T10:30:42.021Z,27.59
2022-08-05T10:32:59.763Z,28.58
2022-08-05T10:35:08.103Z,29.51
2022-08-05T10:37:39.997Z,29.73
2022-08-05T10:40:27.740Z,28.80
2022-08-05T10:42:59.132Z,27.28
2022-08-05T10:45:39.778Z,27.26
2022-08-05T10:48:52.772Z,28.19
2022-08-05T10:51:23.216Z,27.93
2022-08-05T10:54:23.023Z,28.10
2022-08-05T10:56:56.227Z,28.37
2022-08-05T11:00:04.429Z,28.90
2022-08-05T11:02:38.043Z,29.07
2022-08-05T11:05:12.064Z,29.70
2022-08-05T11:08:02.619Z,29.81
2022-08-05T11:10:35.331Z,29.59
2022-08-05T11:13:06.079Z,30.05
2022-08-05T11:15:59.184Z,30.20
2022-08-05T11:18:30.154Z,29.81
2022-08-05T11:21:00.154Z,29.66
2022-08-05T11:24:04.787Z,29.35
2022-08-05T11:26:29.133Z,28.06
2022-08-05T11:29:12.756Z,28.70
2022-08-05T11:31:56.448Z,29.14
2022-08-05T11:34:38.015Z,29.45
2022-08-05T11:38:26.716Z,29.34
2022-08-05T11:40:00.488Z,28.97
2022-08-05T11:42:32.762Z,28.41
2022-08-05T11:45:14.304Z,27.47
2022-08-05T11:47:56.541Z,27.80
2022-08-05T11:50:25.233Z,27.82
2022-08-05T11:52:57.216Z,27.75
2022-08-05T11:55:31.971Z,27.66
2022-08-05T11:58:10.189Z,27.68
2022-08-05T12:00:41.345Z,28.03
2022-08-05T12:03:31.882Z,27.54
2022-08-05T12:06:01.747Z,27.12
2022-08-05T12:08:31.476Z,26.80
2022-08-05T12:11:05.534Z,27.06
2022-08-05T12:13:49.221Z,27.36
2022-08-05T12:16:26.989Z,27.54
2022-08-05T12:18:54.969Z,27.83
2022-08-05T12:21:30.150Z,27.95
2022-08-05T12:24:08.443Z,27.80
2022-08-05T12:26:39.771Z,27.83
2022-08-05T12:29:17.878Z,28.11
2022-08-05T12:31:53.214Z,28.70
2022-08-05T12:34:32.185Z,28.74
2022-08-05T12:37:03.419Z,28.27
2022-08-05T12:39:37.327Z,28.25
2022-08-05T12:42:14.751Z,28.28
2022-08-05T12:44:44.824Z,28.42
2022-08-05T12:47:17.160Z,28.66
2022-08-05T12:50:04.814Z,28.79
2022-08-05T12:52:38.701Z,29.01
2022-08-05T12:55:36.605Z,29.06
2022-08-05T12:58:49.251Z,28.92
2022-08-05T13:02:02.595Z,28.81
2022-08-05T13:03:43.353Z,28.89
2022-08-05T13:06:17.345Z,28.78
2022-08-05T13:08:51.931Z,28.26
2022-08-05T13:11:57.910Z,28.36
2022-08-05T13:14:19.607Z,28.22
2022-08-05T13:16:48.914Z,27.74
2022-08-05T13:19:16.574Z,27.62
2022-08-05T13:21:52.552Z,27.49
2022-08-05T13:24:27.671Z,27.82
2022-08-05T13:27:17.181Z,27.68
2022-08-05T13:30:32.735Z,27.72
2022-08-05T13:32:50.568Z,27.94
2022-08-05T13:35:22.155Z,28.50
2022-08-05T13:37:59.094Z,28.39
2022-08-05T13:40:48.145Z,28.17
2022-08-05T13:43:21.946Z,28.35
2022-08-05T13:45:50.859Z,28.66
2022-08-05T13:48:57.993Z,28.76
2022-08-05T13:51:09.519Z,28.75
2022-08-05T13:53:48.151Z,28.72
2022-08-05T13:56:18.851Z,28.60
2022-08-05T13:58:53.134Z,28.08
2022-08-05T14:01:25.819Z,28.01
2022-08-05T14:04:26.523Z,27.99
2022-08-05T14:06:58.615Z,27.98
2022-08-05T14:09:26.276Z,28.19
2022-08-05T14:12:04.419Z,28.49
2022-08-05T14:14:44.917Z,28.80
2022-08-05T14:17:16.950Z,28.87
2022-08-05T14:19:54.217Z,28.72
2022-08-05T14:22:24.574Z,28.76
2022-08-05T14:24:57.990Z,28.81
2022-08-05T14:27:28.369Z,29.08
2022-08-05T14:29:56.287Z,29.09
2022-08-05T14:32:27.764Z,29.10
2022-08-05T14:34:56.708Z,29.08
2022-08-05T14:37:45.507Z,28.90
2022-08-05T14:40:14.175Z,28.49
2022-08-05T14:42:44.498Z,28.73
2022-08-05T14:45:11.969Z,28.83
2022-08-05T14:48:03.393Z,28.75
2022-08-05T14:50:28.066Z,28.81
2022-08-05T14:53:00.242Z,28.56
2022-08-05T14:55:38.589Z,28.57
2022-08-05T14:58:11.321Z,28.41
2022-08-05T15:00:57.948Z,28.54
2022-08-05T15:03:33.866Z,27.90
2022-08-05T15:06:15.171Z,28.17
2022-08-05T15:09:01.343Z,28.20
2022-08-05T15:11:51.596Z,28.13
2022-08-05T15:14:35.034Z,27.90
2022-08-05T15:17:09.805Z,28.25
2022-08-05T15:19:55.024Z,28.36
2022-08-05T15:22:27.053Z,28.31
2022-08-05T15:24:55.843Z,28.32
2022-08-05T15:27:25.818Z,28.29
2022-08-05T15:29:54.264Z,28.38
2022-08-05T15:32:27.248Z,28.31
2022-08-05T15:34:57.380Z,28.13
2022-08-05T15:38:34.810Z,27.84
2022-08-05T15:40:58.548Z,27.77
2022-08-05T15:43:10.900Z,27.70
2022-08-05T15:45:45.679Z,27.54
2022-08-05T15:48:14.095Z,27.51
2022-08-05T15:50:43.551Z,27.59
2022-08-05T15:53:16.275Z,27.58
2022-08-05T15:56:03.110Z,27.46
2022-08-05T15:58:35.698Z,27.31
2022-08-05T16:01:16.360Z,26.85
2022-08-05T16:03:50.758Z,26.87
2022-08-05T16:06:20.159Z,26.78
2022-08-05T16:08:51.162Z,26.77
2022-08-05T16:11:43.111Z,26.99
2022-08-05T16:14:09.110Z,26.94
2022-08-05T16:16:36.741Z,26.78
2022-08-05T16:19:04.815Z,26.73
2022-08-05T16:22:00.777Z,26.78
2022-08-05T16:24:41.668Z,26.82
2022-08-05T16:27:07.293Z,26.76
2022-08-05T16:29:37.609Z,26.76
2022-08-05T16:32:09.978Z,26.80
2022-08-05T16:34:39.319Z,26.80
2022-08-05T16:38:02.813Z,26.75
2022-08-05T16:40:06.476Z,26.68
2022-08-05T16:42:40.454Z,26.61
2022-08-05T16:46:07.011Z,26.58
2022-08-05T16:47:57.411Z,26.51
2022-08-05T16:50:26.940Z,26.44
2022-08-05T16:52:56.567Z,26.31
2022-08-05T16:55:24.591Z,26.04
2022-08-05T16:58:00.514Z,25.90
2022-08-05T17:00:34.502Z,25.81
2022-08-05T17:03:03.638Z,25.75
2022-08-05T17:05:31.964Z,25.68
2022-08-05T17:07:59.537Z,25.66
2022-08-05T17:10:30.547Z,25.61
2022-08-05T17:12:58.409Z,25.55
2022-08-05T17:15:29.320Z,25.49
2022-08-05T17:18:14.263Z,25.38
2022-08-05T17:20:42.418Z,25.28
2022-08-05T17:24:04.840Z,25.19
2022-08-05T17:26:02.276Z,25.08
2022-08-05T17:28:29.761Z,25.01
2022-08-05T17:30:57.121Z,24.92
2022-08-05T17:33:25.807Z,24.80
2022-08-05T17:36:08.050Z,24.67
2022-08-05T17:38:37.514Z,24.48
2022-08-05T17:41:23.013Z,24.34
2022-08-05T17:43:56.290Z,24.21
2022-08-05T17:46:25.300Z,24.12
2022-08-05T17:48:52.734Z,23.98
2022-08-05T17:51:21.446Z,23.85
2022-08-05T17:53:50.821Z,23.74
2022-08-05T17:56:22.792Z,23.59
2022-08-05T17:58:51.059Z,23.40
2022-08-05T18:01:19.253Z,23.22
2022-08-05T18:03:59.518Z,23.56
2022-08-05T18:06:32.361Z,24.07
2022-08-05T18:08:59.836Z,24.07
2022-08-05T18:11:33.246Z,23.87
2022-08-05T18:14:07.550Z,23.66
2022-08-05T18:16:51.123Z,23.37
2022-08-05T18:19:22.703Z,23.15
2022-08-05T18:22:07.301Z,22.98
2022-08-05T18:24:39.479Z,22.78
2022-08-05T18:27:12.659Z,22.64
2022-08-05T18:29:53.597Z,22.55
2022-08-05T18:32:28.084Z,23.11
2022-08-05T18:34:57.765Z,23.72
2022-08-05T18:37:33.995Z,23.86
2022-08-05T18:41:53.143Z,23.77
2022-08-05T18:42:56.952Z,23.58
2022-08-05T18:45:24.924Z,23.45
2022-08-05T18:48:08.193Z,23.27
2022-08-05T18:50:57.679Z,23.11
2022-08-05T18:53:50.193Z,22.93
2022-08-05T18:56:21.928Z,22.79
2022-08-05T18:58:54.802Z,22.68
2022-08-05T19:01:33.188Z,23.23
2022-08-05T19:04:14.652Z,23.79
2022-08-05T19:06:51.736Z,23.80
2022-08-05T19:09:21.310Z,23.62
2022-08-05T19:12:00.394Z,23.35
2022-08-05T19:14:53.356Z,23.06
2022-08-05T19:17:17.219Z,22.76
2022-08-05T19:19:48.730Z,22.49
2022-08-05T19:22:17.203Z,22.27
2022-08-05T19:24:54.609Z,22.10
2022-08-05T19:27:30.262Z,22.59
2022-08-05T19:29:58.554Z,23.04
2022-08-05T19:32:26.500Z,22.98
2022-08-05T19:34:56.674Z,22.78
2022-08-05T19:37:34.870Z,22.52
2022-08-05T19:40:14.958Z,22.19
2022-08-05T19:42:42.667Z,21.89
2022-08-05T19:45:33.150Z,21.57
2022-08-05T19:48:05.354Z,21.35
2022-08-05T19:50:32.887Z,21.83
2022-08-05T19:53:10.221Z,22.34
2022-08-05T19:56:14.415Z,22.36
2022-08-05T19:58:29.148Z,22.13
2022-08-05T20:00:59.530Z,21.88
2022-08-05T20:03:40.575Z,21.63
2022-08-05T20:06:15.507Z,21.27
2022-08-05T20:08:47.390Z,20.88
2022-08-05T20:11:17.960Z,21.14
2022-08-05T20:13:58.681Z,21.54
2022-08-05T20:16:34.515Z,21.47
2022-08-05T20:19:01.854Z,21.21
2022-08-05T20:21:31.810Z,20.99
2022-08-05T20:24:01.851Z,20.81
2022-08-05T20:26:30.163Z,20.61
2022-08-05T20:29:26.781Z,20.44
2022-08-05T20:31:58.387Z,20.90
2022-08-05T20:34:27.153Z,21.19
2022-08-05T20:36:54.930Z,21.04
2022-08-05T20:39:23.054Z,20.78
2022-08-05T20:41:50.583Z,20.53
2022-08-05T20:44:30.185Z,20.25
2022-08-05T20:46:59.798Z,19.90
2022-08-05T20:49:27.354Z,20.22
2022-08-05T20:51:55.654Z,20.57
2022-08-05T20:54:59.068Z,20.55
2022-08-05T20:57:42.628Z,20.21
2022-08-05T21:00:21.094Z,19.90
2022-08-05T21:03:01.553Z,19.75
2022-08-05T21:05:48.361Z,19.60
2022-08-05T21:08:16.570Z,20.13
2022-08-05T21:10:48.979Z,20.54
2022-08-05T21:13:26.101Z,20.51
2022-08-05T21:16:05.835Z,20.25
2022-08-05T21:18:33.189Z,19.93
2022-08-05T21:21:00.454Z,19.67
2022-08-05T21:23:27.814Z,19.43
2022-08-05T21:26:12.338Z,19.73
2022-08-05T21:28:47.701Z,20.15
2022-08-05T21:31:18.937Z,20.16
2022-08-05T21:33:47.834Z,20.02
2022-08-05T21:36:27.525Z,19.80
2022-08-05T21:38:55.405Z,19.51
2022-08-05T21:41:22.996Z,19.28
2022-08-05T21:44:01.698Z,19.67
2022-08-05T21:46:32.492Z,20.18
2022-08-05T21:49:07.103Z,20.18
2022-08-05T21:52:21.488Z,19.99
2022-08-05T21:54:30.903Z,19.65
2022-08-05T21:57:29.946Z,19.25
2022-08-05T22:00:03.304Z,18.98
2022-08-05T22:02:39.997Z,19.55
2022-08-05T22:05:10.256Z,19.84
2022-08-05T22:07:40.091Z,19.68
2022-08-05T22:10:27.019Z,19.38
2022-08-05T22:12:57.478Z,19.13
2022-08-05T22:16:00.529Z,18.86
2022-08-05T22:18:12.599Z,18.68
2022-08-05T22:20:44.501Z,19.18
2022-08-05T22:24:01.946Z,19.58
2022-08-05T22:26:38.103Z,19.48
2022-08-05T22:29:05.986Z,19.10
2022-08-05T22:31:44.350Z,18.78
2022-08-05T22:34:12.873Z,18.50
2022-08-05T22:36:48.214Z,18.37
2022-08-05T22:39:21.515Z,18.88
2022-08-05T22:42:09.385Z,19.44
2022-08-05T22:44:42.493Z,19.47
2022-08-05T22:47:28.540Z,19.19
2022-08-05T22:50:19.345Z,18.82
2022-08-05T22:52:52.424Z,18.43
2022-08-05T22:55:21.471Z,18.23
2022-08-05T22:57:53.006Z,18.76
2022-08-05T23:00:21.503Z,19.34
2022-08-05T23:02:50.440Z,19.42
2022-08-05T23:05:18.396Z,19.27
2022-08-05T23:07:48.841Z,19.05
2022-08-05T23:10:19.601Z,18.83
2022-08-05T23:12:54.437Z,18.63
2022-08-05T23:15:27.063Z,19.02
2022-08-05T23:18:01.601Z,19.45
2022-08-05T23:20:32.126Z,19.34
2022-08-05T23:23:00.141Z,18.97
2022-08-05T23:25:52.713Z,18.57
2022-08-05T23:28:15.845Z,18.20
2022-08-05T23:30:53.608Z,18.02
2022-08-05T23:34:02.791Z,18.47
2022-08-05T23:36:10.069Z,18.93
2022-08-05T23:38:38.208Z,18.83
2022-08-05T23:41:06.669Z,18.56
2022-08-05T23:43:37.195Z,18.12
2022-08-05T23:46:22.200Z,17.79
2022-08-05T23:49:00.345Z,17.66
2022-08-05T23:51:54.272Z,18.12
2022-08-05T23:54:30.366Z,18.59
2022-08-05T23:57:03.262Z,18.46
